sensor_id;sensor_type;location;lat;lon;timestamp;temperature;humidity
40538;DHT22;27925;41.874;12.526;2023-01-16T00:01:17;14.10;87.00
40538;DHT22;27925;41.874;12.526;2023-01-16T00:03:43;14.10;87.20
40538;DHT22;27925;41.874;12.526;2023-01-16T00:06:09;14.10;87.00
40538;DHT22;27925;41.874;12.526;2023-01-16T00:08:34;14.10;86.90
40538;DHT22;27925;41.874;12.526;2023-01-16T00:11:00;14.10;87.00
40538;DHT22;27925;41.874;12.526;2023-01-16T00:13:25;14.10;86.90
40538;DHT22;27925;41.874;12.526;2023-01-16T00:15:52;14.10;86.90
40538;DHT22;27925;41.874;12.526;2023-01-16T00:18:18;14.10;87.10
40538;DHT22;27925;41.874;12.526;2023-01-16T00:20:45;14.10;87.00
40538;DHT22;27925;41.874;12.526;2023-01-16T00:23:11;14.10;87.20
40538;DHT22;27925;41.874;12.526;2023-01-16T00:25:41;14.10;87.00
40538;DHT22;27925;41.874;12.526;2023-01-16T00:28:08;14.10;87.20
40538;DHT22;27925;41.874;12.526;2023-01-16T00:30:34;14.10;87.40
40538;DHT22;27925;41.874;12.526;2023-01-16T00:32:59;14.10;87.30
40538;DHT22;27925;41.874;12.526;2023-01-16T00:35:25;14.10;87.50
40538;DHT22;27925;41.874;12.526;2023-01-16T00:37:52;14.10;87.80
40538;DHT22;27925;41.874;12.526;2023-01-16T00:40:18;14.10;88.00
40538;DHT22;27925;41.874;12.526;2023-01-16T00:42:44;14.10;88.20
40538;DHT22;27925;41.874;12.526;2023-01-16T00:45:10;14.10;88.20
40538;DHT22;27925;41.874;12.526;2023-01-16T00:47:36;14.10;88.20
40538;DHT22;27925;41.874;12.526;2023-01-16T00:50:02;14.10;88.40
40538;DHT22;27925;41.874;12.526;2023-01-16T00:52:28;14.10;88.40
40538;DHT22;27925;41.874;12.526;2023-01-16T00:54:53;14.00;88.40
40538;DHT22;27925;41.874;12.526;2023-01-16T00:57:19;14.00;88.50
40538;DHT22;27925;41.874;12.526;2023-01-16T00:59:45;14.00;88.70
40538;DHT22;27925;41.874;12.526;2023-01-16T01:02:10;14.00;88.90
40538;DHT22;27925;41.874;12.526;2023-01-16T01:04:36;14.00;89.00
40538;DHT22;27925;41.874;12.526;2023-01-16T01:07:02;14.00;88.80
40538;DHT22;27925;41.874;12.526;2023-01-16T01:09:28;14.00;89.10
40538;DHT22;27925;41.874;12.526;2023-01-16T01:11:56;14.00;88.90
40538;DHT22;27925;41.874;12.526;2023-01-16T01:14:21;14.00;89.20
40538;DHT22;27925;41.874;12.526;2023-01-16T01:16:48;14.00;89.00
40538;DHT22;27925;41.874;12.526;2023-01-16T01:19:14;14.00;89.20
40538;DHT22;27925;41.874;12.526;2023-01-16T01:21:40;14.00;89.20
40538;DHT22;27925;41.874;12.526;2023-01-16T01:24:05;14.00;89.10
40538;DHT22;27925;41.874;12.526;2023-01-16T01:26:31;14.00;89.10
40538;DHT22;27925;41.874;12.526;2023-01-16T01:28:57;14.00;89.30
40538;DHT22;27925;41.874;12.526;2023-01-16T01:31:23;14.00;89.30
40538;DHT22;27925;41.874;12.526;2023-01-16T01:33:48;14.00;89.20
40538;DHT22;27925;41.874;12.526;2023-01-16T01:36:14;14.00;89.30
40538;DHT22;27925;41.874;12.526;2023-01-16T01:38:40;14.00;89.40
40538;DHT22;27925;41.874;12.526;2023-01-16T01:41:06;14.00;89.60
40538;DHT22;27925;41.874;12.526;2023-01-16T01:43:43;14.00;89.50
40538;DHT22;27925;41.874;12.526;2023-01-16T01:46:33;14.00;89.60
40538;DHT22;27925;41.874;12.526;2023-01-16T01:51:44;14.00;88.80
40538;DHT22;27925;41.874;12.526;2023-01-16T01:54:18;14.00;89.90
40538;DHT22;27925;41.874;12.526;2023-01-16T01:57:19;14.00;88.90
40538;DHT22;27925;41.874;12.526;2023-01-16T02:00:14;14.00;88.90
40538;DHT22;27925;41.874;12.526;2023-01-16T02:02:44;14.00;89.40
40538;DHT22;27925;41.874;12.526;2023-01-16T02:05:11;14.00;88.80
40538;DHT22;27925;41.874;12.526;2023-01-16T02:07:38;14.00;89.50
40538;DHT22;27925;41.874;12.526;2023-01-16T02:10:34;14.10;89.50
40538;DHT22;27925;41.874;12.526;2023-01-16T02:13:02;14.00;88.80
40538;DHT22;27925;41.874;12.526;2023-01-16T02:15:29;14.00;89.30
40538;DHT22;27925;41.874;12.526;2023-01-16T02:17:55;14.00;89.50
40538;DHT22;27925;41.874;12.526;2023-01-16T02:20:53;14.10;89.20
40538;DHT22;27925;41.874;12.526;2023-01-16T02:31:48;14.10;90.00
40538;DHT22;27925;41.874;12.526;2023-01-16T02:42:45;13.90;90.10
40538;DHT22;27925;41.874;12.526;2023-01-16T02:45:36;13.90;90.50
40538;DHT22;27925;41.874;12.526;2023-01-16T02:48:08;13.90;90.30
40538;DHT22;27925;41.874;12.526;2023-01-16T02:51:22;13.90;90.70
40538;DHT22;27925;41.874;12.526;2023-01-16T02:56:44;13.90;90.60
40538;DHT22;27925;41.874;12.526;2023-01-16T02:59:32;13.90;90.70
40538;DHT22;27925;41.874;12.526;2023-01-16T03:01:58;13.80;90.60
40538;DHT22;27925;41.874;12.526;2023-01-16T03:16:30;13.70;91.00
40538;DHT22;27925;41.874;12.526;2023-01-16T03:19:17;13.60;91.00
40538;DHT22;27925;41.874;12.526;2023-01-16T03:30:34;13.50;91.30
40538;DHT22;27925;41.874;12.526;2023-01-16T03:33:06;13.60;91.40
40538;DHT22;27925;41.874;12.526;2023-01-16T03:35:42;13.50;91.50
40538;DHT22;27925;41.874;12.526;2023-01-16T03:38:14;13.50;91.50
40538;DHT22;27925;41.874;12.526;2023-01-16T03:40:44;13.50;91.60
40538;DHT22;27925;41.874;12.526;2023-01-16T03:45:47;13.50;91.70
40538;DHT22;27925;41.874;12.526;2023-01-16T03:48:22;13.40;91.70
40538;DHT22;27925;41.874;12.526;2023-01-16T03:56:43;13.40;91.70
40538;DHT22;27925;41.874;12.526;2023-01-16T03:59:10;13.40;91.70
40538;DHT22;27925;41.874;12.526;2023-01-16T04:04:08;13.40;91.50
40538;DHT22;27925;41.874;12.526;2023-01-16T04:09:07;13.40;91.40
40538;DHT22;27925;41.874;12.526;2023-01-16T04:11:35;13.40;91.30
40538;DHT22;27925;41.874;12.526;2023-01-16T04:14:03;13.50;91.20
40538;DHT22;27925;41.874;12.526;2023-01-16T04:16:31;13.40;91.10
40538;DHT22;27925;41.874;12.526;2023-01-16T04:18:58;13.50;91.00
40538;DHT22;27925;41.874;12.526;2023-01-16T04:21:28;13.40;90.90
40538;DHT22;27925;41.874;12.526;2023-01-16T04:23:57;13.40;90.80
40538;DHT22;27925;41.874;12.526;2023-01-16T04:26:24;13.40;90.80
40538;DHT22;27925;41.874;12.526;2023-01-16T04:28:50;13.40;90.70
40538;DHT22;27925;41.874;12.526;2023-01-16T04:31:24;13.40;90.60
40538;DHT22;27925;41.874;12.526;2023-01-16T04:33:50;13.40;90.60
40538;DHT22;27925;41.874;12.526;2023-01-16T04:36:16;13.30;90.50
40538;DHT22;27925;41.874;12.526;2023-01-16T04:38:42;13.40;90.50
40538;DHT22;27925;41.874;12.526;2023-01-16T04:41:07;13.40;90.40
40538;DHT22;27925;41.874;12.526;2023-01-16T04:43:33;13.30;90.40
40538;DHT22;27925;41.874;12.526;2023-01-16T04:45:59;13.40;90.40
40538;DHT22;27925;41.874;12.526;2023-01-16T04:48:24;13.40;90.30
40538;DHT22;27925;41.874;12.526;2023-01-16T04:50:50;13.40;90.20
40538;DHT22;27925;41.874;12.526;2023-01-16T04:53:16;13.40;90.30
40538;DHT22;27925;41.874;12.526;2023-01-16T04:55:42;13.40;90.20
40538;DHT22;27925;41.874;12.526;2023-01-16T04:58:07;13.50;90.10
40538;DHT22;27925;41.874;12.526;2023-01-16T05:00:33;13.50;90.10
40538;DHT22;27925;41.874;12.526;2023-01-16T05:02:59;13.50;90.10
40538;DHT22;27925;41.874;12.526;2023-01-16T05:05:24;13.50;90.00
40538;DHT22;27925;41.874;12.526;2023-01-16T05:07:50;13.50;89.70
40538;DHT22;27925;41.874;12.526;2023-01-16T05:10:36;13.50;89.60
40538;DHT22;27925;41.874;12.526;2023-01-16T05:13:03;13.50;89.50
40538;DHT22;27925;41.874;12.526;2023-01-16T05:15:29;13.50;89.20
40538;DHT22;27925;41.874;12.526;2023-01-16T05:17:55;13.50;89.10
40538;DHT22;27925;41.874;12.526;2023-01-16T05:20:21;13.50;89.00
40538;DHT22;27925;41.874;12.526;2023-01-16T05:22:47;13.50;88.80
40538;DHT22;27925;41.874;12.526;2023-01-16T05:25:13;13.50;88.70
40538;DHT22;27925;41.874;12.526;2023-01-16T05:27:39;13.50;88.50
40538;DHT22;27925;41.874;12.526;2023-01-16T05:30:05;13.50;88.30
40538;DHT22;27925;41.874;12.526;2023-01-16T05:32:30;13.50;88.00
40538;DHT22;27925;41.874;12.526;2023-01-16T05:34:56;13.50;87.90
40538;DHT22;27925;41.874;12.526;2023-01-16T05:37:22;13.50;87.60
40538;DHT22;27925;41.874;12.526;2023-01-16T05:39:47;13.60;87.50
40538;DHT22;27925;41.874;12.526;2023-01-16T05:42:13;13.50;87.00
40538;DHT22;27925;41.874;12.526;2023-01-16T05:44:51;13.50;86.50
40538;DHT22;27925;41.874;12.526;2023-01-16T05:47:17;13.50;86.80
40538;DHT22;27925;41.874;12.526;2023-01-16T05:49:43;13.50;86.70
40538;DHT22;27925;41.874;12.526;2023-01-16T05:52:09;13.50;86.80
40538;DHT22;27925;41.874;12.526;2023-01-16T05:54:34;13.50;86.70
40538;DHT22;27925;41.874;12.526;2023-01-16T05:57:00;13.50;86.70
40538;DHT22;27925;41.874;12.526;2023-01-16T05:59:26;13.40;86.60
40538;DHT22;27925;41.874;12.526;2023-01-16T06:01:51;13.40;86.60
40538;DHT22;27925;41.874;12.526;2023-01-16T06:04:17;13.40;86.40
40538;DHT22;27925;41.874;12.526;2023-01-16T06:06:47;13.50;86.50
40538;DHT22;27925;41.874;12.526;2023-01-16T06:09:13;13.40;86.20
40538;DHT22;27925;41.874;12.526;2023-01-16T06:11:39;13.40;85.70
40538;DHT22;27925;41.874;12.526;2023-01-16T06:14:04;13.40;85.30
40538;DHT22;27925;41.874;12.526;2023-01-16T06:16:34;13.40;85.10
40538;DHT22;27925;41.874;12.526;2023-01-16T06:19:01;13.40;84.70
40538;DHT22;27925;41.874;12.526;2023-01-16T06:21:27;13.40;84.50
40538;DHT22;27925;41.874;12.526;2023-01-16T06:23:52;13.40;84.20
40538;DHT22;27925;41.874;12.526;2023-01-16T06:26:18;13.40;84.00
40538;DHT22;27925;41.874;12.526;2023-01-16T06:28:45;13.40;83.80
40538;DHT22;27925;41.874;12.526;2023-01-16T06:31:11;13.40;83.30
40538;DHT22;27925;41.874;12.526;2023-01-16T06:33:37;13.40;82.80
40538;DHT22;27925;41.874;12.526;2023-01-16T06:36:03;13.40;82.80
40538;DHT22;27925;41.874;12.526;2023-01-16T06:38:28;13.40;82.50
40538;DHT22;27925;41.874;12.526;2023-01-16T06:40:54;13.40;82.10
40538;DHT22;27925;41.874;12.526;2023-01-16T06:43:28;13.40;82.20
40538;DHT22;27925;41.874;12.526;2023-01-16T06:45:54;13.50;82.50
40538;DHT22;27925;41.874;12.526;2023-01-16T06:48:21;13.40;82.30
40538;DHT22;27925;41.874;12.526;2023-01-16T06:50:47;13.50;82.40
40538;DHT22;27925;41.874;12.526;2023-01-16T06:53:13;13.50;81.90
40538;DHT22;27925;41.874;12.526;2023-01-16T06:55:39;13.50;81.70
40538;DHT22;27925;41.874;12.526;2023-01-16T06:58:05;13.40;81.80
40538;DHT22;27925;41.874;12.526;2023-01-16T07:00:31;13.40;81.70
40538;DHT22;27925;41.874;12.526;2023-01-16T07:02:57;13.40;81.70
40538;DHT22;27925;41.874;12.526;2023-01-16T07:05:25;13.40;81.40
40538;DHT22;27925;41.874;12.526;2023-01-16T07:07:51;13.40;81.40
40538;DHT22;27925;41.874;12.526;2023-01-16T07:10:17;13.40;81.30
40538;DHT22;27925;41.874;12.526;2023-01-16T07:12:46;13.40;81.40
40538;DHT22;27925;41.874;12.526;2023-01-16T07:15:12;13.50;81.10
40538;DHT22;27925;41.874;12.526;2023-01-16T07:17:56;13.50;81.20
40538;DHT22;27925;41.874;12.526;2023-01-16T07:20:41;13.40;80.80
40538;DHT22;27925;41.874;12.526;2023-01-16T07:23:29;13.40;80.40
40538;DHT22;27925;41.874;12.526;2023-01-16T07:25:57;13.40;80.20
40538;DHT22;27925;41.874;12.526;2023-01-16T07:28:25;13.40;80.20
40538;DHT22;27925;41.874;12.526;2023-01-16T07:30:50;13.30;80.20
40538;DHT22;27925;41.874;12.526;2023-01-16T07:33:16;13.30;79.90
40538;DHT22;27925;41.874;12.526;2023-01-16T07:35:42;13.40;79.90
40538;DHT22;27925;41.874;12.526;2023-01-16T07:38:09;13.40;79.70
40538;DHT22;27925;41.874;12.526;2023-01-16T07:40:34;13.40;79.90
40538;DHT22;27925;41.874;12.526;2023-01-16T07:43:00;13.40;79.80
40538;DHT22;27925;41.874;12.526;2023-01-16T07:45:26;13.40;79.50
40538;DHT22;27925;41.874;12.526;2023-01-16T07:47:51;13.50;79.20
40538;DHT22;27925;41.874;12.526;2023-01-16T07:50:17;13.50;79.10
40538;DHT22;27925;41.874;12.526;2023-01-16T07:52:43;13.60;78.90
40538;DHT22;27925;41.874;12.526;2023-01-16T07:55:09;13.70;78.70
40538;DHT22;27925;41.874;12.526;2023-01-16T07:57:36;13.70;78.20
40538;DHT22;27925;41.874;12.526;2023-01-16T08:00:04;13.70;78.10
40538;DHT22;27925;41.874;12.526;2023-01-16T08:02:30;13.80;78.00
40538;DHT22;27925;41.874;12.526;2023-01-16T08:04:55;13.80;77.80
40538;DHT22;27925;41.874;12.526;2023-01-16T08:07:21;13.80;77.60
40538;DHT22;27925;41.874;12.526;2023-01-16T08:09:47;13.80;77.30
40538;DHT22;27925;41.874;12.526;2023-01-16T08:12:12;13.90;77.40
40538;DHT22;27925;41.874;12.526;2023-01-16T08:14:38;13.90;77.20
40538;DHT22;27925;41.874;12.526;2023-01-16T08:17:04;13.90;77.00
40538;DHT22;27925;41.874;12.526;2023-01-16T08:19:30;13.90;77.30
40538;DHT22;27925;41.874;12.526;2023-01-16T08:21:56;14.00;76.50
40538;DHT22;27925;41.874;12.526;2023-01-16T08:24:22;14.00;76.40
40538;DHT22;27925;41.874;12.526;2023-01-16T08:26:49;14.00;76.10
40538;DHT22;27925;41.874;12.526;2023-01-16T08:29:15;14.00;76.10
40538;DHT22;27925;41.874;12.526;2023-01-16T08:31:40;14.00;75.50
40538;DHT22;27925;41.874;12.526;2023-01-16T08:34:06;14.00;75.30
40538;DHT22;27925;41.874;12.526;2023-01-16T08:36:32;14.10;75.30
40538;DHT22;27925;41.874;12.526;2023-01-16T08:38:58;14.10;75.30
40538;DHT22;27925;41.874;12.526;2023-01-16T08:41:23;14.20;75.00
40538;DHT22;27925;41.874;12.526;2023-01-16T08:44:08;14.30;74.80
40538;DHT22;27925;41.874;12.526;2023-01-16T08:47:13;14.50;74.60
40538;DHT22;27925;41.874;12.526;2023-01-16T08:49:59;14.60;74.20
40538;DHT22;27925;41.874;12.526;2023-01-16T08:52:44;14.80;74.30
40538;DHT22;27925;41.874;12.526;2023-01-16T08:55:10;14.90;73.90
40538;DHT22;27925;41.874;12.526;2023-01-16T08:57:36;15.00;73.60
40538;DHT22;27925;41.874;12.526;2023-01-16T09:00:03;15.10;73.30
40538;DHT22;27925;41.874;12.526;2023-01-16T09:02:30;15.20;73.10
40538;DHT22;27925;41.874;12.526;2023-01-16T09:04:57;15.30;72.80
40538;DHT22;27925;41.874;12.526;2023-01-16T09:07:22;15.40;72.50
40538;DHT22;27925;41.874;12.526;2023-01-16T09:09:48;15.50;71.80
40538;DHT22;27925;41.874;12.526;2023-01-16T09:12:14;15.50;71.10
40538;DHT22;27925;41.874;12.526;2023-01-16T09:14:58;15.50;71.60
40538;DHT22;27925;41.874;12.526;2023-01-16T09:17:25;15.50;70.60
40538;DHT22;27925;41.874;12.526;2023-01-16T09:19:51;15.50;70.80
40538;DHT22;27925;41.874;12.526;2023-01-16T09:22:18;15.40;70.80
40538;DHT22;27925;41.874;12.526;2023-01-16T09:24:44;15.40;70.20
40538;DHT22;27925;41.874;12.526;2023-01-16T09:27:10;15.40;69.80
40538;DHT22;27925;41.874;12.526;2023-01-16T09:29:36;15.40;69.60
40538;DHT22;27925;41.874;12.526;2023-01-16T09:32:01;15.30;68.40
40538;DHT22;27925;41.874;12.526;2023-01-16T09:34:33;15.30;68.40
40538;DHT22;27925;41.874;12.526;2023-01-16T09:36:59;15.30;67.60
40538;DHT22;27925;41.874;12.526;2023-01-16T09:39:25;15.30;67.40
40538;DHT22;27925;41.874;12.526;2023-01-16T09:42:01;15.40;66.80
40538;DHT22;27925;41.874;12.526;2023-01-16T09:44:51;15.40;65.90
40538;DHT22;27925;41.874;12.526;2023-01-16T09:47:21;15.40;65.80
40538;DHT22;27925;41.874;12.526;2023-01-16T09:49:51;15.40;66.30
40538;DHT22;27925;41.874;12.526;2023-01-16T09:52:21;15.40;66.20
40538;DHT22;27925;41.874;12.526;2023-01-16T09:55:17;15.40;66.30
40538;DHT22;27925;41.874;12.526;2023-01-16T09:58:04;15.30;66.40
40538;DHT22;27925;41.874;12.526;2023-01-16T10:00:49;15.20;66.60
40538;DHT22;27925;41.874;12.526;2023-01-16T10:03:15;15.10;66.80
40538;DHT22;27925;41.874;12.526;2023-01-16T10:11:28;15.10;67.50
40538;DHT22;27925;41.874;12.526;2023-01-16T10:14:01;15.10;67.20
40538;DHT22;27925;41.874;12.526;2023-01-16T10:16:41;15.10;66.70
40538;DHT22;27925;41.874;12.526;2023-01-16T10:22:44;15.30;66.20
40538;DHT22;27925;41.874;12.526;2023-01-16T10:30:12;15.50;65.10
40538;DHT22;27925;41.874;12.526;2023-01-16T10:37:45;15.50;64.70
40538;DHT22;27925;41.874;12.526;2023-01-16T10:40:23;15.50;64.70
40538;DHT22;27925;41.874;12.526;2023-01-16T10:43:21;15.50;64.60
40538;DHT22;27925;41.874;12.526;2023-01-16T10:46:15;15.50;64.40
40538;DHT22;27925;41.874;12.526;2023-01-16T10:49:01;15.50;63.70
40538;DHT22;27925;41.874;12.526;2023-01-16T10:51:46;15.50;63.20
40538;DHT22;27925;41.874;12.526;2023-01-16T10:54:11;15.40;63.30
40538;DHT22;27925;41.874;12.526;2023-01-16T10:56:37;15.40;62.70
40538;DHT22;27925;41.874;12.526;2023-01-16T10:59:08;15.40;62.80
40538;DHT22;27925;41.874;12.526;2023-01-16T11:01:37;15.40;62.50
40538;DHT22;27925;41.874;12.526;2023-01-16T11:04:05;15.40;62.20
40538;DHT22;27925;41.874;12.526;2023-01-16T11:06:34;15.40;62.10
40538;DHT22;27925;41.874;12.526;2023-01-16T11:11:35;15.40;62.40
40538;DHT22;27925;41.874;12.526;2023-01-16T11:17:29;15.30;62.90
40538;DHT22;27925;41.874;12.526;2023-01-16T11:20:18;15.30;62.80
40538;DHT22;27925;41.874;12.526;2023-01-16T11:22:48;15.40;63.30
40538;DHT22;27925;41.874;12.526;2023-01-16T11:25:17;15.40;63.50
40538;DHT22;27925;41.874;12.526;2023-01-16T11:27:44;15.30;63.80
40538;DHT22;27925;41.874;12.526;2023-01-16T11:30:21;15.40;64.40
40538;DHT22;27925;41.874;12.526;2023-01-16T11:32:48;15.40;65.20
40538;DHT22;27925;41.874;12.526;2023-01-16T11:35:17;15.40;64.80
40538;DHT22;27925;41.874;12.526;2023-01-16T11:37:44;15.30;64.50
40538;DHT22;27925;41.874;12.526;2023-01-16T11:40:20;15.30;64.40
40538;DHT22;27925;41.874;12.526;2023-01-16T11:42:57;15.30;64.70
40538;DHT22;27925;41.874;12.526;2023-01-16T11:45:48;15.20;65.00
40538;DHT22;27925;41.874;12.526;2023-01-16T11:48:54;15.20;65.40
40538;DHT22;27925;41.874;12.526;2023-01-16T11:51:23;15.30;65.70
40538;DHT22;27925;41.874;12.526;2023-01-16T11:53:50;15.30;66.00
40538;DHT22;27925;41.874;12.526;2023-01-16T11:59:17;15.30;66.40
40538;DHT22;27925;41.874;12.526;2023-01-16T12:02:06;15.30;66.90
40538;DHT22;27925;41.874;12.526;2023-01-16T12:05:08;15.30;66.40
40538;DHT22;27925;41.874;12.526;2023-01-16T12:13:20;15.10;67.60
40538;DHT22;27925;41.874;12.526;2023-01-16T12:16:20;15.10;68.10
40538;DHT22;27925;41.874;12.526;2023-01-16T12:23:59;15.30;68.70
40538;DHT22;27925;41.874;12.526;2023-01-16T12:26:34;15.40;68.40
40538;DHT22;27925;41.874;12.526;2023-01-16T12:39:59;15.60;67.90
40538;DHT22;27925;41.874;12.526;2023-01-16T12:45:45;15.40;67.80
40538;DHT22;27925;41.874;12.526;2023-01-16T12:58:49;14.90;69.00
40538;DHT22;27925;41.874;12.526;2023-01-16T13:01:19;14.80;69.40
40538;DHT22;27925;41.874;12.526;2023-01-16T13:06:44;15.00;69.70
40538;DHT22;27925;41.874;12.526;2023-01-16T13:12:07;14.90;70.20
40538;DHT22;27925;41.874;12.526;2023-01-16T13:14:58;14.80;70.70
40538;DHT22;27925;41.874;12.526;2023-01-16T13:17:41;14.70;71.10
40538;DHT22;27925;41.874;12.526;2023-01-16T13:20:10;14.60;71.10
40538;DHT22;27925;41.874;12.526;2023-01-16T13:22:50;14.50;70.80
40538;DHT22;27925;41.874;12.526;2023-01-16T13:25:34;14.50;70.70
40538;DHT22;27925;41.874;12.526;2023-01-16T13:28:06;14.50;71.10
40538;DHT22;27925;41.874;12.526;2023-01-16T13:30:33;14.40;71.30
40538;DHT22;27925;41.874;12.526;2023-01-16T13:33:06;14.40;71.70
40538;DHT22;27925;41.874;12.526;2023-01-16T13:35:52;14.30;72.00
40538;DHT22;27925;41.874;12.526;2023-01-16T13:44:13;14.30;72.50
40538;DHT22;27925;41.874;12.526;2023-01-16T13:47:04;14.30;72.40
40538;DHT22;27925;41.874;12.526;2023-01-16T13:49:32;14.40;72.90
40538;DHT22;27925;41.874;12.526;2023-01-16T13:52:01;14.40;72.90
40538;DHT22;27925;41.874;12.526;2023-01-16T13:54:35;14.50;73.20
40538;DHT22;27925;41.874;12.526;2023-01-16T13:57:14;14.50;73.40
40538;DHT22;27925;41.874;12.526;2023-01-16T14:11:14;14.50;73.60
40538;DHT22;27925;41.874;12.526;2023-01-16T14:13:40;14.40;74.00
40538;DHT22;27925;41.874;12.526;2023-01-16T14:21:24;14.50;74.60
40538;DHT22;27925;41.874;12.526;2023-01-16T14:23:57;14.40;74.50
40538;DHT22;27925;41.874;12.526;2023-01-16T14:26:39;14.40;74.50
40538;DHT22;27925;41.874;12.526;2023-01-16T14:31:49;14.40;74.50
40538;DHT22;27925;41.874;12.526;2023-01-16T14:34:21;14.40;74.40
40538;DHT22;27925;41.874;12.526;2023-01-16T14:36:52;14.40;74.40
40538;DHT22;27925;41.874;12.526;2023-01-16T14:39:37;14.50;74.20
40538;DHT22;27925;41.874;12.526;2023-01-16T14:42:13;14.50;74.00
40538;DHT22;27925;41.874;12.526;2023-01-16T14:48:09;14.60;74.10
40538;DHT22;27925;41.874;12.526;2023-01-16T14:51:27;14.50;73.70
40538;DHT22;27925;41.874;12.526;2023-01-16T14:57:13;14.40;73.10
40538;DHT22;27925;41.874;12.526;2023-01-16T14:59:44;14.40;72.80
40538;DHT22;27925;41.874;12.526;2023-01-16T15:03:22;14.30;72.80
40538;DHT22;27925;41.874;12.526;2023-01-16T15:05:35;14.30;72.40
40538;DHT22;27925;41.874;12.526;2023-01-16T15:08:38;14.30;72.60
40538;DHT22;27925;41.874;12.526;2023-01-16T15:11:15;14.30;72.50
40538;DHT22;27925;41.874;12.526;2023-01-16T15:14:11;14.30;72.20
40538;DHT22;27925;41.874;12.526;2023-01-16T15:17:36;14.20;72.50
40538;DHT22;27925;41.874;12.526;2023-01-16T15:31:36;14.00;72.10
40538;DHT22;27925;41.874;12.526;2023-01-16T15:34:20;14.00;72.10
40538;DHT22;27925;41.874;12.526;2023-01-16T15:36:50;14.00;72.10
40538;DHT22;27925;41.874;12.526;2023-01-16T15:42:10;13.90;71.90
40538;DHT22;27925;41.874;12.526;2023-01-16T15:44:57;13.90;72.10
40538;DHT22;27925;41.874;12.526;2023-01-16T15:53:01;13.80;71.70
40538;DHT22;27925;41.874;12.526;2023-01-16T15:55:37;13.80;72.50
40538;DHT22;27925;41.874;12.526;2023-01-16T15:58:05;13.80;71.90
40538;DHT22;27925;41.874;12.526;2023-01-16T16:03:14;13.80;71.60
40538;DHT22;27925;41.874;12.526;2023-01-16T16:05:44;13.80;71.70
40538;DHT22;27925;41.874;12.526;2023-01-16T16:08:25;13.80;71.50
40538;DHT22;27925;41.874;12.526;2023-01-16T16:10:52;13.80;71.00
40538;DHT22;27925;41.874;12.526;2023-01-16T16:13:38;13.80;70.90
40538;DHT22;27925;41.874;12.526;2023-01-16T16:19:00;13.80;71.30
40538;DHT22;27925;41.874;12.526;2023-01-16T16:21:32;13.80;71.40
40538;DHT22;27925;41.874;12.526;2023-01-16T16:24:10;13.80;71.40
40538;DHT22;27925;41.874;12.526;2023-01-16T16:26:42;13.80;71.80
40538;DHT22;27925;41.874;12.526;2023-01-16T16:29:19;13.90;72.10
40538;DHT22;27925;41.874;12.526;2023-01-16T16:31:46;13.80;72.70
40538;DHT22;27925;41.874;12.526;2023-01-16T16:34:23;13.80;73.00
40538;DHT22;27925;41.874;12.526;2023-01-16T16:36:54;13.80;73.20
40538;DHT22;27925;41.874;12.526;2023-01-16T16:42:00;13.50;74.00
40538;DHT22;27925;41.874;12.526;2023-01-16T16:44:46;13.40;74.50
40538;DHT22;27925;41.874;12.526;2023-01-16T16:47:30;13.40;74.70
40538;DHT22;27925;41.874;12.526;2023-01-16T16:49:56;13.30;75.20
40538;DHT22;27925;41.874;12.526;2023-01-16T16:52:33;13.30;75.60
40538;DHT22;27925;41.874;12.526;2023-01-16T16:55:01;13.30;75.80
40538;DHT22;27925;41.874;12.526;2023-01-16T16:57:34;13.30;75.90
40538;DHT22;27925;41.874;12.526;2023-01-16T17:00:05;13.30;76.20
40538;DHT22;27925;41.874;12.526;2023-01-16T17:02:31;13.30;76.70
40538;DHT22;27925;41.874;12.526;2023-01-16T17:04:56;13.30;76.60
40538;DHT22;27925;41.874;12.526;2023-01-16T17:07:24;13.30;76.80
40538;DHT22;27925;41.874;12.526;2023-01-16T17:09:49;13.30;76.80
40538;DHT22;27925;41.874;12.526;2023-01-16T17:12:17;13.30;76.90
40538;DHT22;27925;41.874;12.526;2023-01-16T17:14:46;13.30;76.80
40538;DHT22;27925;41.874;12.526;2023-01-16T17:17:16;13.30;77.20
40538;DHT22;27925;41.874;12.526;2023-01-16T17:19:43;13.30;77.20
40538;DHT22;27925;41.874;12.526;2023-01-16T17:22:10;13.20;77.40
40538;DHT22;27925;41.874;12.526;2023-01-16T17:24:37;13.20;77.30
40538;DHT22;27925;41.874;12.526;2023-01-16T17:27:03;13.20;77.70
40538;DHT22;27925;41.874;12.526;2023-01-16T17:29:33;13.20;78.10
40538;DHT22;27925;41.874;12.526;2023-01-16T17:31:59;13.20;78.10
40538;DHT22;27925;41.874;12.526;2023-01-16T17:34:30;13.20;79.10
40538;DHT22;27925;41.874;12.526;2023-01-16T17:36:58;13.20;78.60
40538;DHT22;27925;41.874;12.526;2023-01-16T17:39:24;13.20;78.70
40538;DHT22;27925;41.874;12.526;2023-01-16T17:41:51;13.20;78.90
40538;DHT22;27925;41.874;12.526;2023-01-16T17:44:22;13.20;79.20
40538;DHT22;27925;41.874;12.526;2023-01-16T17:47:07;13.20;79.80
40538;DHT22;27925;41.874;12.526;2023-01-16T17:49:33;13.20;79.20
40538;DHT22;27925;41.874;12.526;2023-01-16T17:52:23;13.20;79.30
40538;DHT22;27925;41.874;12.526;2023-01-16T17:54:49;13.20;78.70
40538;DHT22;27925;41.874;12.526;2023-01-16T17:57:33;13.10;78.70
40538;DHT22;27925;41.874;12.526;2023-01-16T17:59:59;13.10;78.70
40538;DHT22;27925;41.874;12.526;2023-01-16T18:02:25;13.10;78.70
40538;DHT22;27925;41.874;12.526;2023-01-16T18:04:51;13.10;79.00
40538;DHT22;27925;41.874;12.526;2023-01-16T18:07:17;13.10;78.80
40538;DHT22;27925;41.874;12.526;2023-01-16T18:09:43;13.10;78.90
40538;DHT22;27925;41.874;12.526;2023-01-16T18:12:09;13.10;78.90
40538;DHT22;27925;41.874;12.526;2023-01-16T18:14:53;13.10;79.60
40538;DHT22;27925;41.874;12.526;2023-01-16T18:17:37;13.10;79.50
40538;DHT22;27925;41.874;12.526;2023-01-16T18:20:04;13.10;81.00
40538;DHT22;27925;41.874;12.526;2023-01-16T18:22:32;13.10;79.60
40538;DHT22;27925;41.874;12.526;2023-01-16T18:24:59;13.10;79.20
40538;DHT22;27925;41.874;12.526;2023-01-16T18:27:26;13.10;79.40
40538;DHT22;27925;41.874;12.526;2023-01-16T18:29:52;13.10;79.50
40538;DHT22;27925;41.874;12.526;2023-01-16T18:32:18;13.10;79.80
40538;DHT22;27925;41.874;12.526;2023-01-16T18:34:55;13.10;80.50
40538;DHT22;27925;41.874;12.526;2023-01-16T18:37:23;13.00;81.30
40538;DHT22;27925;41.874;12.526;2023-01-16T18:39:49;13.10;80.40
40538;DHT22;27925;41.874;12.526;2023-01-16T18:42:33;13.10;81.00
40538;DHT22;27925;41.874;12.526;2023-01-16T18:45:17;13.10;81.00
40538;DHT22;27925;41.874;12.526;2023-01-16T18:48:02;13.20;81.70